sensor_id;sensor_type;location;lat;lon;timestamp;P1;durP1;ratioP1;P2;durP2;ratioP2
11037;SDS011;5572;49.540;11.932;2023-08-24T00:00:26;5.33;;;4.93;;
11037;SDS011;5572;49.540;11.932;2023-08-24T00:02:52;7.67;;;4.80;;
11037;SDS011;5572;49.540;11.932;2023-08-24T00:05:19;5.63;;;5.13;;
11037;SDS011;5572;49.540;11.932;2023-08-24T00:07:46;5.40;;;5.00;;
11037;SDS011;5572;49.540;11.932;2023-08-24T00:10:13;5.50;;;5.00;;
11037;SDS011;5572;49.540;11.932;2023-08-24T00:12:41;5.43;;;5.03;;
11037;SDS011;5572;49.540;11.932;2023-08-24T00:15:08;5.63;;;5.10;;
11037;SDS011;5572;49.540;11.932;2023-08-24T00:17:35;5.70;;;5.10;;
11037;SDS011;5572;49.540;11.932;2023-08-24T00:20:02;5.03;;;4.63;;
11037;SDS011;5572;49.540;11.932;2023-08-24T00:22:30;7.13;;;5.00;;
11037;SDS011;5572;49.540;11.932;2023-08-24T00:24:56;4.93;;;4.63;;
11037;SDS011;5572;49.540;11.932;2023-08-24T00:27:23;5.80;;;4.93;;
11037;SDS011;5572;49.540;11.932;2023-08-24T00:29:51;5.37;;;4.90;;
11037;SDS011;5572;49.540;11.932;2023-08-24T00:32:18;5.30;;;4.77;;
11037;SDS011;5572;49.540;11.932;2023-08-24T00:34:44;6.53;;;4.70;;
11037;SDS011;5572;49.540;11.932;2023-08-24T00:37:11;6.27;;;5.53;;
11037;SDS011;5572;49.540;11.932;2023-08-24T00:39:38;5.63;;;5.03;;
11037;SDS011;5572;49.540;11.932;2023-08-24T00:42:04;5.53;;;5.00;;
11037;SDS011;5572;49.540;11.932;2023-08-24T00:44:31;5.50;;;5.00;;
11037;SDS011;5572;49.540;11.932;2023-08-24T00:47:00;5.03;;;4.63;;
11037;SDS011;5572;49.540;11.932;2023-08-24T00:49:27;5.40;;;4.90;;
11037;SDS011;5572;49.540;11.932;2023-08-24T00:51:53;9.33;;;5.33;;
11037;SDS011;5572;49.540;11.932;2023-08-24T00:54:20;10.10;;;4.50;;
11037;SDS011;5572;49.540;11.932;2023-08-24T00:56:47;6.07;;;5.17;;
11037;SDS011;5572;49.540;11.932;2023-08-24T00:59:14;4.43;;;4.13;;
11037;SDS011;5572;49.540;11.932;2023-08-24T01:01:41;4.80;;;4.37;;
11037;SDS011;5572;49.540;11.932;2023-08-24T01:04:12;4.40;;;4.10;;
11037;SDS011;5572;49.540;11.932;2023-08-24T01:06:39;5.40;;;4.90;;
11037;SDS011;5572;49.540;11.932;2023-08-24T01:09:05;4.57;;;4.27;;
11037;SDS011;5572;49.540;11.932;2023-08-24T01:11:37;5.23;;;4.33;;
11037;SDS011;5572;49.540;11.932;2023-08-24T01:14:11;4.13;;;3.83;;
11037;SDS011;5572;49.540;11.932;2023-08-24T01:16:47;5.13;;;4.70;;
11037;SDS011;5572;49.540;11.932;2023-08-24T01:19:21;4.97;;;4.57;;
11037;SDS011;5572;49.540;11.932;2023-08-24T01:22:01;5.70;;;4.97;;
11037;SDS011;5572;49.540;11.932;2023-08-24T01:24:30;5.70;;;5.20;;
11037;SDS011;5572;49.540;11.932;2023-08-24T01:27:05;5.03;;;4.70;;
11037;SDS011;5572;49.540;11.932;2023-08-24T01:29:32;5.30;;;4.90;;
11037;SDS011;5572;49.540;11.932;2023-08-24T01:31:59;5.40;;;5.00;;
11037;SDS011;5572;49.540;11.932;2023-08-24T01:34:25;5.50;;;5.00;;
11037;SDS011;5572;49.540;11.932;2023-08-24T01:36:52;5.17;;;4.67;;
11037;SDS011;5572;49.540;11.932;2023-08-24T01:39:20;5.87;;;4.80;;
11037;SDS011;5572;49.540;11.932;2023-08-24T01:41:55;5.97;;;5.10;;
11037;SDS011;5572;49.540;11.932;2023-08-24T01:44:28;5.23;;;4.77;;
11037;SDS011;5572;49.540;11.932;2023-08-24T01:46:57;7.57;;;4.67;;
11037;SDS011;5572;49.540;11.932;2023-08-24T01:49:27;5.33;;;4.50;;
11037;SDS011;5572;49.540;11.932;2023-08-24T01:51:55;7.17;;;4.40;;
11037;SDS011;5572;49.540;11.932;2023-08-24T01:54:23;4.87;;;4.47;;
11037;SDS011;5572;49.540;11.932;2023-08-24T01:56:50;5.13;;;4.70;;
11037;SDS011;5572;49.540;11.932;2023-08-24T01:59:16;4.40;;;4.10;;
11037;SDS011;5572;49.540;11.932;2023-08-24T02:01:44;5.60;;;4.30;;
11037;SDS011;5572;49.540;11.932;2023-08-24T02:04:11;4.83;;;4.30;;
11037;SDS011;5572;49.540;11.932;2023-08-24T02:06:37;7.23;;;4.53;;
11037;SDS011;5572;49.540;11.932;2023-08-24T02:09:04;4.67;;;4.27;;
11037;SDS011;5572;49.540;11.932;2023-08-24T02:11:30;4.93;;;4.43;;
11037;SDS011;5572;49.540;11.932;2023-08-24T02:13:57;4.77;;;4.37;;
11037;SDS011;5572;49.540;11.932;2023-08-24T02:16:23;5.20;;;4.47;;
11037;SDS011;5572;49.540;11.932;2023-08-24T02:18:51;5.43;;;4.67;;
11037;SDS011;5572;49.540;11.932;2023-08-24T02:21:18;5.30;;;4.90;;
11037;SDS011;5572;49.540;11.932;2023-08-24T02:23:44;5.10;;;4.60;;
11037;SDS011;5572;49.540;11.932;2023-08-24T02:26:11;4.97;;;4.57;;
11037;SDS011;5572;49.540;11.932;2023-08-24T02:28:37;5.03;;;4.63;;
11037;SDS011;5572;49.540;11.932;2023-08-24T02:31:05;5.60;;;4.47;;
11037;SDS011;5572;49.540;11.932;2023-08-24T02:33:31;4.90;;;4.50;;
11037;SDS011;5572;49.540;11.932;2023-08-24T02:36:00;4.60;;;4.20;;
11037;SDS011;5572;49.540;11.932;2023-08-24T02:38:26;5.67;;;4.77;;
11037;SDS011;5572;49.540;11.932;2023-08-24T02:40:59;6.47;;;4.73;;
11037;SDS011;5572;49.540;11.932;2023-08-24T02:43:27;6.53;;;4.20;;
11037;SDS011;5572;49.540;11.932;2023-08-24T02:45:53;6.53;;;4.70;;
11037;SDS011;5572;49.540;11.932;2023-08-24T02:48:20;5.47;;;4.67;;
11037;SDS011;5572;49.540;11.932;2023-08-24T02:50:46;7.50;;;4.70;;
11037;SDS011;5572;49.540;11.932;2023-08-24T02:53:14;7.03;;;4.30;;
11037;SDS011;5572;49.540;11.932;2023-08-24T02:55:41;7.57;;;4.87;;
11037;SDS011;5572;49.540;11.932;2023-08-24T02:58:07;4.93;;;4.17;;
11037;SDS011;5572;49.540;11.932;2023-08-24T03:00:34;6.67;;;4.40;;
11037;SDS011;5572;49.540;11.932;2023-08-24T03:03:04;5.10;;;4.60;;
11037;SDS011;5572;49.540;11.932;2023-08-24T03:05:31;4.40;;;4.00;;
11037;SDS011;5572;49.540;11.932;2023-08-24T03:07:58;8.53;;;4.80;;
11037;SDS011;5572;49.540;11.932;2023-08-24T03:10:26;5.33;;;4.87;;
11037;SDS011;5572;49.540;11.932;2023-08-24T03:12:53;5.23;;;4.43;;
11037;SDS011;5572;49.540;11.932;2023-08-24T03:15:19;5.63;;;4.67;;
11037;SDS011;5572;49.540;11.932;2023-08-24T03:17:46;6.57;;;4.87;;
11037;SDS011;5572;49.540;11.932;2023-08-24T03:20:13;5.50;;;5.00;;
11037;SDS011;5572;49.540;11.932;2023-08-24T03:22:39;5.17;;;4.63;;
11037;SDS011;5572;49.540;11.932;2023-08-24T03:25:07;6.47;;;5.10;;
11037;SDS011;5572;49.540;11.932;2023-08-24T03:27:35;4.57;;;4.23;;
11037;SDS011;5572;49.540;11.932;2023-08-24T03:30:02;8.13;;;4.50;;
11037;SDS011;5572;49.540;11.932;2023-08-24T03:32:29;4.90;;;4.60;;
11037;SDS011;5572;49.540;11.932;2023-08-24T03:34:58;4.87;;;4.53;;
11037;SDS011;5572;49.540;11.932;2023-08-24T03:37:25;4.63;;;4.33;;
11037;SDS011;5572;49.540;11.932;2023-08-24T03:39:51;4.57;;;4.27;;
11037;SDS011;5572;49.540;11.932;2023-08-24T03:42:18;4.07;;;3.83;;
11037;SDS011;5572;49.540;11.932;2023-08-24T04:36:29;5.70;;;5.10;;
11037;SDS011;5572;49.540;11.932;2023-08-24T04:38:56;5.00;;;4.60;;
11037;SDS011;5572;49.540;11.932;2023-08-24T04:41:22;5.00;;;4.60;;
11037;SDS011;5572;49.540;11.932;2023-08-24T04:43:49;4.47;;;4.17;;
11037;SDS011;5572;49.540;11.932;2023-08-24T04:46:16;5.53;;;4.63;;
11037;SDS011;5572;49.540;11.932;2023-08-24T04:48:42;5.53;;;5.00;;
11037;SDS011;5572;49.540;11.932;2023-08-24T04:51:09;5.07;;;4.57;;
11037;SDS011;5572;49.540;11.932;2023-08-24T04:53:37;5.87;;;5.27;;
11037;SDS011;5572;49.540;11.932;2023-08-24T04:56:04;5.33;;;4.83;;
11037;SDS011;5572;49.540;11.932;2023-08-24T04:58:32;5.47;;;4.73;;
11037;SDS011;5572;49.540;11.932;2023-08-24T05:00:59;5.10;;;4.60;;
11037;SDS011;5572;49.540;11.932;2023-08-24T05:03:25;5.63;;;5.20;;
11037;SDS011;5572;49.540;11.932;2023-08-24T05:05:52;7.97;;;4.60;;
11037;SDS011;5572;49.540;11.932;2023-08-24T05:08:19;5.63;;;5.23;;
11037;SDS011;5572;49.540;11.932;2023-08-24T05:10:47;5.30;;;4.60;;
11037;SDS011;5572;49.540;11.932;2023-08-24T05:13:13;7.63;;;4.60;;
11037;SDS011;5572;49.540;11.932;2023-08-24T05:15:40;5.30;;;4.80;;
11037;SDS011;5572;49.540;11.932;2023-08-24T05:18:07;5.40;;;4.90;;
11037;SDS011;5572;49.540;11.932;2023-08-24T05:20:34;8.70;;;5.07;;
11037;SDS011;5572;49.540;11.932;2023-08-24T05:23:01;7.27;;;4.30;;
11037;SDS011;5572;49.540;11.932;2023-08-24T05:25:27;8.70;;;4.40;;
11037;SDS011;5572;49.540;11.932;2023-08-24T05:27:56;6.27;;;5.53;;
11037;SDS011;5572;49.540;11.932;2023-08-24T05:30:22;6.33;;;5.70;;
11037;SDS011;5572;49.540;11.932;2023-08-24T05:32:50;6.80;;;4.53;;
11037;SDS011;5572;49.540;11.932;2023-08-24T05:35:16;5.23;;;4.83;;
11037;SDS011;5572;49.540;11.932;2023-08-24T08:02:26;5.43;;;5.03;;
11037;SDS011;5572;49.540;11.932;2023-08-24T08:04:55;5.60;;;5.10;;
11037;SDS011;5572;49.540;11.932;2023-08-24T08:07:23;6.38;;;5.75;;
11037;SDS011;5572;49.540;11.932;2023-08-24T08:09:50;5.93;;;5.47;;
11037;SDS011;5572;49.540;11.932;2023-08-24T08:12:16;9.00;;;5.43;;
11037;SDS011;5572;49.540;11.932;2023-08-24T08:14:43;5.97;;;5.47;;
11037;SDS011;5572;49.540;11.932;2023-08-24T08:17:10;6.25;;;5.75;;
11037;SDS011;5572;49.540;11.932;2023-08-24T08:19:38;5.90;;;5.07;;
11037;SDS011;5572;49.540;11.932;2023-08-24T08:32:15;6.13;;;5.38;;
11037;SDS011;5572;49.540;11.932;2023-08-24T08:34:43;9.52;;;5.75;;
11037;SDS011;5572;49.540;11.932;2023-08-24T08:37:09;6.50;;;5.18;;
11037;SDS011;5572;49.540;11.932;2023-08-24T08:39:36;5.97;;;5.28;;
11037;SDS011;5572;49.540;11.932;2023-08-24T08:42:03;6.63;;;5.20;;
11037;SDS011;5572;49.540;11.932;2023-08-24T08:44:30;5.65;;;5.18;;
11037;SDS011;5572;49.540;11.932;2023-08-24T08:46:58;5.72;;;5.28;;
11037;SDS011;5572;49.540;11.932;2023-08-24T08:49:25;6.63;;;5.75;;
11037;SDS011;5572;49.540;11.932;2023-08-24T08:51:53;7.18;;;6.47;;
11037;SDS011;5572;49.540;11.932;2023-08-24T08:54:20;9.90;;;6.15;;
11037;SDS011;5572;49.540;11.932;2023-08-24T08:56:47;6.30;;;5.80;;
11037;SDS011;5572;49.540;11.932;2023-08-24T08:59:14;6.35;;;5.85;;
11037;SDS011;5572;49.540;11.932;2023-08-24T09:01:41;5.95;;;5.45;;
11037;SDS011;5572;49.540;11.932;2023-08-24T09:04:12;7.10;;;5.88;;
11037;SDS011;5572;49.540;11.932;2023-08-24T09:06:39;6.47;;;5.93;;
11037;SDS011;5572;49.540;11.932;2023-08-24T09:09:08;19.60;;;6.10;;
11037;SDS011;5572;49.540;11.932;2023-08-24T09:11:35;7.13;;;6.20;;
11037;SDS011;5572;49.540;11.932;2023-08-24T09:14:03;6.47;;;5.88;;
11037;SDS011;5572;49.540;11.932;2023-08-24T09:16:30;9.82;;;6.00;;
11037;SDS011;5572;49.540;11.932;2023-08-24T09:18:58;6.10;;;5.63;;
11037;SDS011;5572;49.540;11.932;2023-08-24T09:21:25;7.93;;;6.30;;
11037;SDS011;5572;49.540;11.932;2023-08-24T09:23:52;6.30;;;5.85;;
11037;SDS011;5572;49.540;11.932;2023-08-24T09:26:28;7.80;;;6.22;;
11037;SDS011;5572;49.540;11.932;2023-08-24T09:28:55;7.60;;;6.43;;
11037;SDS011;5572;49.540;11.932;2023-08-24T09:31:22;6.40;;;5.90;;
11037;SDS011;5572;49.540;11.932;2023-08-24T09:33:49;6.20;;;5.60;;
11037;SDS011;5572;49.540;11.932;2023-08-24T09:36:16;7.93;;;5.75;;
11037;SDS011;5572;49.540;11.932;2023-08-24T09:38:46;6.72;;;6.13;;
11037;SDS011;5572;49.540;11.932;2023-08-24T09:41:14;10.23;;;5.90;;
11037;SDS011;5572;49.540;11.932;2023-08-24T09:43:44;6.27;;;5.77;;
11037;SDS011;5572;49.540;11.932;2023-08-24T09:46:11;6.88;;;6.00;;
11037;SDS011;5572;49.540;11.932;2023-08-24T09:48:37;6.72;;;6.22;;
11037;SDS011;5572;49.540;11.932;2023-08-24T09:51:04;6.53;;;5.80;;
11037;SDS011;5572;49.540;11.932;2023-08-24T09:53:32;5.90;;;5.50;;
11037;SDS011;5572;49.540;11.932;2023-08-24T09:56:00;6.00;;;5.35;;
11037;SDS011;5572;49.540;11.932;2023-08-24T09:58:28;5.60;;;5.20;;
11037;SDS011;5572;49.540;11.932;2023-08-24T10:00:56;9.30;;;5.68;;
11037;SDS011;5572;49.540;11.932;2023-08-24T10:03:24;8.05;;;5.05;;
11037;SDS011;5572;49.540;11.932;2023-08-24T10:05:52;6.28;;;5.55;;
11037;SDS011;5572;49.540;11.932;2023-08-24T10:08:20;5.72;;;4.53;;
11037;SDS011;5572;49.540;11.932;2023-08-24T10:10:52;9.90;;;5.68;;
11037;SDS011;5572;49.540;11.932;2023-08-24T10:13:22;12.65;;;5.55;;
11037;SDS011;5572;49.540;11.932;2023-08-24T10:15:56;6.75;;;4.53;;
11037;SDS011;5572;49.540;11.932;2023-08-24T10:18:24;6.07;;;5.10;;
11037;SDS011;5572;49.540;11.932;2023-08-24T10:20:52;5.43;;;4.90;;
11037;SDS011;5572;49.540;11.932;2023-08-24T10:23:18;14.55;;;4.85;;
11037;SDS011;5572;49.540;11.932;2023-08-24T10:25:45;5.10;;;4.70;;
11037;SDS011;5572;49.540;11.932;2023-08-24T10:28:13;9.00;;;5.05;;
11037;SDS011;5572;49.540;11.932;2023-08-24T10:30:40;5.10;;;4.78;;
11037;SDS011;5572;49.540;11.932;2023-08-24T10:33:10;5.63;;;5.13;;
11037;SDS011;5572;49.540;11.932;2023-08-24T10:35:37;5.78;;;5.25;;
11037;SDS011;5572;49.540;11.932;2023-08-24T10:38:05;7.68;;;5.10;;
11037;SDS011;5572;49.540;11.932;2023-08-24T10:40:32;5.75;;;5.22;;
11037;SDS011;5572;49.540;11.932;2023-08-24T10:43:02;5.47;;;5.03;;
11037;SDS011;5572;49.540;11.932;2023-08-24T10:48:23;5.50;;;5.15;;
11037;SDS011;5572;49.540;11.932;2023-08-24T10:53:47;5.93;;;5.53;;
11037;SDS011;5572;49.540;11.932;2023-08-24T10:56:17;6.75;;;5.78;;
11037;SDS011;5572;49.540;11.932;2023-08-24T10:58:45;6.43;;;5.32;;
11037;SDS011;5572;49.540;11.932;2023-08-24T11:01:16;5.72;;;5.30;;
11037;SDS011;5572;49.540;11.932;2023-08-24T11:03:49;6.68;;;5.63;;
11037;SDS011;5572;49.540;11.932;2023-08-24T11:06:20;5.78;;;5.38;;
11037;SDS011;5572;49.540;11.932;2023-08-24T11:08:48;10.77;;;5.80;;
11037;SDS011;5572;49.540;11.932;2023-08-24T11:11:18;6.30;;;5.60;;
11037;SDS011;5572;49.540;11.932;2023-08-24T11:16:45;7.50;;;5.72;;
11037;SDS011;5572;49.540;11.932;2023-08-24T11:19:13;6.05;;;5.55;;
11037;SDS011;5572;49.540;11.932;2023-08-24T11:21:41;6.45;;;5.95;;
11037;SDS011;5572;49.540;11.932;2023-08-24T11:24:09;7.53;;;5.97;;
11037;SDS011;5572;49.540;11.932;2023-08-24T11:26:39;7.20;;;5.88;;
11037;SDS011;5572;49.540;11.932;2023-08-24T11:29:07;7.28;;;5.95;;
11037;SDS011;5572;49.540;11.932;2023-08-24T11:31:34;6.50;;;6.00;;
11037;SDS011;5572;49.540;11.932;2023-08-24T11:34:01;9.07;;;6.38;;
11037;SDS011;5572;49.540;11.932;2023-08-24T11:36:30;9.35;;;6.30;;
11037;SDS011;5572;49.540;11.932;2023-08-24T11:38:58;6.68;;;6.13;;
11037;SDS011;5572;49.540;11.932;2023-08-24T11:41:25;6.82;;;6.20;;
11037;SDS011;5572;49.540;11.932;2023-08-24T11:43:58;6.57;;;5.97;;
11037;SDS011;5572;49.540;11.932;2023-08-24T11:46:27;6.25;;;5.50;;
11037;SDS011;5572;49.540;11.932;2023-08-24T11:48:56;7.78;;;5.72;;
11037;SDS011;5572;49.540;11.932;2023-08-24T11:51:23;7.05;;;6.38;;
11037;SDS011;5572;49.540;11.932;2023-08-24T11:53:51;6.32;;;5.85;;
11037;SDS011;5572;49.540;11.932;2023-08-24T11:56:18;10.50;;;6.47;;
11037;SDS011;5572;49.540;11.932;2023-08-24T11:58:47;9.57;;;6.10;;
11037;SDS011;5572;49.540;11.932;2023-08-24T12:01:15;7.35;;;5.97;;
11037;SDS011;5572;49.540;11.932;2023-08-24T12:03:42;6.20;;;5.80;;
11037;SDS011;5572;49.540;11.932;2023-08-24T12:06:12;6.50;;;5.50;;
11037;SDS011;5572;49.540;11.932;2023-08-24T12:08:40;6.72;;;6.22;;
11037;SDS011;5572;49.540;11.932;2023-08-24T12:11:12;5.88;;;5.47;;
11037;SDS011;5572;49.540;11.932;2023-08-24T12:13:42;6.82;;;6.22;;
11037;SDS011;5572;49.540;11.932;2023-08-24T12:16:10;5.95;;;5.55;;
11037;SDS011;5572;49.540;11.932;2023-08-24T12:18:45;6.65;;;5.88;;
11037;SDS011;5572;49.540;11.932;2023-08-24T12:21:13;6.60;;;5.95;;
11037;SDS011;5572;49.540;11.932;2023-08-24T12:23:40;6.03;;;5.60;;
11037;SDS011;5572;49.540;11.932;2023-08-24T12:26:06;6.53;;;5.90;;
11037;SDS011;5572;49.540;11.932;2023-08-24T12:28:34;6.40;;;5.85;;
11037;SDS011;5572;49.540;11.932;2023-08-24T12:31:01;7.03;;;6.40;;
11037;SDS011;5572;49.540;11.932;2023-08-24T12:33:29;7.22;;;5.63;;
11037;SDS011;5572;49.540;11.932;2023-08-24T12:35:57;6.43;;;5.80;;
11037;SDS011;5572;49.540;11.932;2023-08-24T12:38:24;6.35;;;5.85;;
11037;SDS011;5572;49.540;11.932;2023-08-24T12:40:52;6.63;;;5.70;;
11037;SDS011;5572;49.540;11.932;2023-08-24T12:43:19;5.80;;;5.32;;
11037;SDS011;5572;49.540;11.932;2023-08-24T12:45:47;7.05;;;6.38;;
11037;SDS011;5572;49.540;11.932;2023-08-24T12:48:13;6.72;;;6.13;;
11037;SDS011;5572;49.540;11.932;2023-08-24T12:50:40;10.23;;;6.20;;
11037;SDS011;5572;49.540;11.932;2023-08-24T12:53:07;7.93;;;6.30;;
11037;SDS011;5572;49.540;11.932;2023-08-24T12:55:34;6.68;;;6.15;;
11037;SDS011;5572;49.540;11.932;2023-08-24T12:58:02;6.70;;;6.20;;
11037;SDS011;5572;49.540;11.932;2023-08-24T13:00:29;9.55;;;6.25;;
11037;SDS011;5572;49.540;11.932;2023-08-24T13:02:57;6.38;;;5.88;;
11037;SDS011;5572;49.540;11.932;2023-08-24T13:05:23;7.05;;;6.53;;
11037;SDS011;5572;49.540;11.932;2023-08-24T13:07:50;6.85;;;6.25;;
11037;SDS011;5572;49.540;11.932;2023-08-24T13:10:17;6.43;;;5.93;;
11037;SDS011;5572;49.540;11.932;2023-08-24T13:12:43;6.95;;;6.35;;
11037;SDS011;5572;49.540;11.932;2023-08-24T13:15:10;6.57;;;6.07;;
11037;SDS011;5572;49.540;11.932;2023-08-24T13:17:37;6.70;;;6.10;;
11037;SDS011;5572;49.540;11.932;2023-08-24T13:20:06;6.90;;;6.40;;
11037;SDS011;5572;49.540;11.932;2023-08-24T13:22:33;6.82;;;6.10;;
11037;SDS011;5572;49.540;11.932;2023-08-24T13:25:00;7.85;;;6.35;;
11037;SDS011;5572;49.540;11.932;2023-08-24T13:27:26;7.07;;;6.47;;
11037;SDS011;5572;49.540;11.932;2023-08-24T13:29:53;6.68;;;6.10;;
11037;SDS011;5572;49.540;11.932;2023-08-24T13:32:21;6.80;;;6.30;;
11037;SDS011;5572;49.540;11.932;2023-08-24T13:34:48;9.50;;;6.30;;
11037;SDS011;5572;49.540;11.932;2023-08-24T13:37:16;7.15;;;6.55;;
11037;SDS011;5572;49.540;11.932;2023-08-24T13:39:43;7.25;;;6.72;;
11037;SDS011;5572;49.540;11.932;2023-08-24T13:42:10;6.60;;;6.15;;
11037;SDS011;5572;49.540;11.932;2023-08-24T13:44:37;7.18;;;6.47;;
11037;SDS011;5572;49.540;11.932;2023-08-24T13:47:04;7.10;;;6.50;;
11037;SDS011;5572;49.540;11.932;2023-08-24T13:49:31;7.28;;;6.55;;
11037;SDS011;5572;49.540;11.932;2023-08-24T13:51:57;7.07;;;6.57;;
11037;SDS011;5572;49.540;11.932;2023-08-24T13:54:25;7.13;;;6.53;;
11037;SDS011;5572;49.540;11.932;2023-08-24T13:56:52;6.85;;;6.20;;
11037;SDS011;5572;49.540;11.932;2023-08-24T13:59:19;6.47;;;5.93;;
11037;SDS011;5572;49.540;11.932;2023-08-24T14:01:46;6.78;;;6.28;;
11037;SDS011;5572;49.540;11.932;2023-08-24T14:04:12;6.57;;;6.13;;
11037;SDS011;5572;49.540;11.932;2023-08-24T14:06:39;6.95;;;6.35;;
11037;SDS011;5572;49.540;11.932;2023-08-24T14:09:06;5.75;;;5.25;;
11037;SDS011;5572;49.540;11.932;2023-08-24T14:11:34;7.15;;;6.43;;
11037;SDS011;5572;49.540;11.932;2023-08-24T14:14:00;6.47;;;5.90;;
11037;SDS011;5572;49.540;11.932;2023-08-24T14:16:27;6.63;;;6.20;;
11037;SDS011;5572;49.540;11.932;2023-08-24T14:18:54;6.35;;;5.88;;
11037;SDS011;5572;49.540;11.932;2023-08-24T14:21:20;7.15;;;6.57;;
11037;SDS011;5572;49.540;11.932;2023-08-24T14:23:48;7.45;;;6.53;;
11037;SDS011;5572;49.540;11.932;2023-08-24T14:26:15;8.68;;;6.85;;
11037;SDS011;5572;49.540;11.932;2023-08-24T14:28:49;6.60;;;5.93;;
11037;SDS011;5572;49.540;11.932;2023-08-24T14:31:18;6.25;;;5.85;;
11037;SDS011;5572;49.540;11.932;2023-08-24T14:33:45;6.20;;;5.70;;
11037;SDS011;5572;49.540;11.932;2023-08-24T14:36:12;6.25;;;5.65;;
11037;SDS011;5572;49.540;11.932;2023-08-24T14:38:39;6.32;;;5.70;;
11037;SDS011;5572;49.540;11.932;2023-08-24T14:41:06;6.35;;;5.75;;
11037;SDS011;5572;49.540;11.932;2023-08-24T14:43:33;7.03;;;5.82;;
11037;SDS011;5572;49.540;11.932;2023-08-24T14:46:01;6.97;;;5.82;;
11037;SDS011;5572;49.540;11.932;2023-08-24T14:48:28;6.43;;;5.82;;
11037;SDS011;5572;49.540;11.932;2023-08-24T14:50:55;7.53;;;6.15;;
11037;SDS011;5572;49.540;11.932;2023-08-24T14:53:22;6.32;;;5.90;;
11037;SDS011;5572;49.540;11.932;2023-08-24T14:55:50;8.85;;;6.13;;
11037;SDS011;5572;49.540;11.932;2023-08-24T14:58:18;7.03;;;5.53;;
11037;SDS011;5572;49.540;11.932;2023-08-24T15:00:46;6.50;;;6.00;;
11037;SDS011;5572;49.540;11.932;2023-08-24T15:03:15;5.95;;;5.47;;
11037;SDS011;5572;49.540;11.932;2023-08-24T15:05:42;6.50;;;5.95;;
11037;SDS011;5572;49.540;11.932;2023-08-24T15:08:09;6.28;;;5.68;;
11037;SDS011;5572;49.540;11.932;2023-08-24T15:10:36;5.93;;;5.53;;
11037;SDS011;5572;49.540;11.932;2023-08-24T15:13:03;6.03;;;5.63;;
11037;SDS011;5572;49.540;11.932;2023-08-24T15:15:30;6.85;;;6.25;;
11037;SDS011;5572;49.540;11.932;2023-08-24T15:17:56;6.15;;;5.75;;
11037;SDS011;5572;49.540;11.932;2023-08-24T15:20:25;6.55;;;5.95;;
11037;SDS011;5572;49.540;11.932;2023-08-24T15:22:51;6.20;;;5.70;;
11037;SDS011;5572;49.540;11.932;2023-08-24T15:25:18;8.73;;;6.10;;
11037;SDS011;5572;49.540;11.932;2023-08-24T15:27:46;7.53;;;6.05;;
11037;SDS011;5572;49.540;11.932;2023-08-24T15:30:13;11.20;;;6.03;;
11037;SDS011;5572;49.540;11.932;2023-08-24T15:32:40;6.47;;;6.07;;
11037;SDS011;5572;49.540;11.932;2023-08-24T15:35:07;6.80;;;6.30;;
11037;SDS011;5572;49.540;11.932;2023-08-24T15:37:35;7.15;;;6.50;;
11037;SDS011;5572;49.540;11.932;2023-08-24T15:40:02;6.15;;;5.75;;
11037;SDS011;5572;49.540;11.932;2023-08-24T15:42:29;6.47;;;5.90;;
11037;SDS011;5572;49.540;11.932;2023-08-24T15:44:56;7.60;;;6.38;;
11037;SDS011;5572;49.540;11.932;2023-08-24T15:47:22;6.43;;;5.93;;
11037;SDS011;5572;49.540;11.932;2023-08-24T15:49:49;7.20;;;6.30;;
11037;SDS011;5572;49.540;11.932;2023-08-24T15:52:16;12.25;;;6.25;;
11037;SDS011;5572;49.540;11.932;2023-08-24T15:54:43;8.00;;;6.20;;
11037;SDS011;5572;49.540;11.932;2023-08-24T15:57:10;10.25;;;5.65;;
11037;SDS011;5572;49.540;11.932;2023-08-24T15:59:37;6.97;;;5.88;;
11037;SDS011;5572;49.540;11.932;2023-08-24T16:02:03;5.97;;;5.50;;
11037;SDS011;5572;49.540;11.932;2023-08-24T16:04:30;6.22;;;5.70;;
11037;SDS011;5572;49.540;11.932;2023-08-24T16:06:57;6.88;;;6.10;;
11037;SDS011;5572;49.540;11.932;2023-08-24T16:09:24;8.00;;;6.10;;
11037;SDS011;5572;49.540;11.932;2023-08-24T16:11:52;6.55;;;5.95;;
11037;SDS011;5572;49.540;11.932;2023-08-24T16:14:19;6.13;;;5.57;;
11037;SDS011;5572;49.540;11.932;2023-08-24T16:16:45;6.63;;;6.10;;
11037;SDS011;5572;49.540;11.932;2023-08-24T16:19:12;7.10;;;6.10;;
11037;SDS011;5572;49.540;11.932;2023-08-24T16:21:38;8.85;;;6.47;;
11037;SDS011;5572;49.540;11.932;2023-08-24T16:24:05;7.63;;;6.72;;
11037;SDS011;5572;49.540;11.932;2023-08-24T16:26:32;6.68;;;6.05;;
11037;SDS011;5572;49.540;11.932;2023-08-24T16:29:00;6.22;;;5.80;;
11037;SDS011;5572;49.540;11.932;2023-08-24T16:31:27;7.40;;;6.72;;
11037;SDS011;5572;49.540;11.932;2023-08-24T16:33:54;6.88;;;6.38;;
11037;SDS011;5572;49.540;11.932;2023-08-24T16:36:20;6.97;;;6.35;;
11037;SDS011;5572;49.540;11.932;2023-08-24T16:38:47;6.78;;;6.07;;
11037;SDS011;5572;49.540;11.932;2023-08-24T16:41:14;9.98;;;5.93;;
11037;SDS011;5572;49.540;11.932;2023-08-24T16:43:40;6.47;;;5.97;;
11037;SDS011;5572;49.540;11.932;2023-08-24T16:46:08;6.35;;;5.95;;
11037;SDS011;5572;49.540;11.932;2023-08-24T16:48:35;8.25;;;6.18;;
11037;SDS011;5572;49.540;11.932;2023-08-24T16:51:01;7.97;;;6.20;;
11037;SDS011;5572;49.540;11.932;2023-08-24T16:53:28;6.43;;;5.93;;
11037;SDS011;5572;49.540;11.932;2023-08-24T16:55:55;7.45;;;6.80;;
11037;SDS011;5572;49.540;11.932;2023-08-24T16:58:21;6.80;;;6.30;;
11037;SDS011;5572;49.540;11.932;2023-08-24T17:00:48;6.43;;;6.00;;
11037;SDS011;5572;49.540;11.932;2023-08-24T17:03:16;11.45;;;6.45;;
11037;SDS011;5572;49.540;11.932;2023-08-24T17:05:42;7.15;;;5.57;;
11037;SDS011;5572;49.540;11.932;2023-08-24T17:08:09;7.03;;;6.15;;
11037;SDS011;5572;49.540;11.932;2023-08-24T17:10:37;6.53;;;6.03;;
11037;SDS011;5572;49.540;11.932;2023-08-24T17:13:05;10.57;;;6.32;;
11037;SDS011;5572;49.540;11.932;2023-08-24T17:15:31;6.95;;;6.35;;
11037;SDS011;5572;49.540;11.932;2023-08-24T17:17:58;6.47;;;5.97;;
11037;SDS011;5572;49.540;11.932;2023-08-24T17:20:26;7.10;;;6.40;;
11037;SDS011;5572;49.540;11.932;2023-08-24T17:22:53;6.68;;;6.10;;
11037;SDS011;5572;49.540;11.932;2023-08-24T17:25:19;6.95;;;6.30;;
11037;SDS011;5572;49.540;11.932;2023-08-24T17:27:46;5.90;;;5.50;;
11037;SDS011;5572;49.540;11.932;2023-08-24T17:30:13;6.80;;;5.80;;
11037;SDS011;5572;49.540;11.932;2023-08-24T17:32:40;6.38;;;5.90;;
11037;SDS011;5572;49.540;11.932;2023-08-24T17:35:06;5.97;;;5.57;;
11037;SDS011;5572;49.540;11.932;2023-08-24T17:37:35;7.78;;;6.22;;
11037;SDS011;5572;49.540;11.932;2023-08-24T17:40:02;7.38;;;6.78;;
11037;SDS011;5572;49.540;11.932;2023-08-24T17:42:31;8.77;;;6.60;;
11037;SDS011;5572;49.540;11.932;2023-08-24T17:44:58;7.53;;;6.47;;
11037;SDS011;5572;49.540;11.932;2023-08-24T17:47:24;6.72;;;6.22;;
11037;SDS011;5572;49.540;11.932;2023-08-24T17:49:51;7.90;;;7.10;;
11037;SDS011;5572;49.540;11.932;2023-08-24T17:52:17;8.93;;;8.13;;
11037;SDS011;5572;49.540;11.932;2023-08-24T17:54:45;7.57;;;6.45;;
11037;SDS011;5572;49.540;11.932;2023-08-24T17:57:12;7.18;;;6.50;;
11037;SDS011;5572;49.540;11.932;2023-08-24T17:59:39;10.75;;;6.20;;
11037;SDS011;5572;49.540;11.932;2023-08-24T18:02:05;6.60;;;6.05;;
11037;SDS011;5572;49.540;11.932;2023-08-24T18:04:32;8.52;;;5.90;;
11037;SDS011;5572;49.540;11.932;2023-08-24T18:06:58;6.65;;;6.05;;
11037;SDS011;5572;49.540;11.932;2023-08-24T18:09:25;6.80;;;5.90;;
11037;SDS011;5572;49.540;11.932;2023-08-24T18:11:53;10.20;;;6.03;;
11037;SDS011;5572;49.540;11.932;2023-08-24T18:14:19;7.85;;;5.82;;
11037;SDS011;5572;49.540;11.932;2023-08-24T18:16:46;11.45;;;5.72;;
11037;SDS011;5572;49.540;11.932;2023-08-24T18:19:13;11.85;;;6.00;;
11037;SDS011;5572;49.540;11.932;2023-08-24T18:21:39;7.18;;;5.50;;
11037;SDS011;5572;49.540;11.932;2023-08-24T18:24:06;7.07;;;6.22;;